Attica, Kansas
Current Conditions -  °F | °C
As of 1:30 AM on Wednesday 26 Nov 2014 (Local Time) from KAVK Reporting Station
Scattered Clouds Scattered Clouds  
Wind Chill: 30°   Ceiling: Unl
Heat Index: 34°   Visibility: 10mi
Dew Point: 27°   Wind: 5mph
Humidity: 75%   Direction: 280°W
Pressure: 29.95"   Gusts: NA
Location:  37.24°N, 98.23°W
Report Text: KAVK 260730Z AUTO 28004KT 10SM SCT110 01/M03 A2995 RMK AO2
Loading
Personal Weather Stations






























Interactive Weather Map New forecast layout! Learn more

10-Day Weather Forecast

Advertisements
Track Severe Weather on mobile